sensor_id;sensor_type;location;lat;lon;timestamp;temperature;humidity
4054;DHT22;2042;47.956;9.222;2022-08-03T00:01:39;14.60;2.70
4054;DHT22;2042;47.956;9.222;2022-08-03T00:04:06;14.60;2.60
4054;DHT22;2042;47.956;9.222;2022-08-03T00:06:32;14.50;2.70
4054;DHT22;2042;47.956;9.222;2022-08-03T00:08:58;14.50;2.60
4054;DHT22;2042;47.956;9.222;2022-08-03T00:11:24;14.40;2.00
4054;DHT22;2042;47.956;9.222;2022-08-03T00:13:49;14.30;2.50
4054;DHT22;2042;47.956;9.222;2022-08-03T00:16:15;14.30;4.10
4054;DHT22;2042;47.956;9.222;2022-08-03T00:18:41;14.20;4.80
4054;DHT22;2042;47.956;9.222;2022-08-03T00:21:07;14.20;6.20
4054;DHT22;2042;47.956;9.222;2022-08-03T00:23:33;14.20;7.30
4054;DHT22;2042;47.956;9.222;2022-08-03T00:25:59;14.20;8.00
4054;DHT22;2042;47.956;9.222;2022-08-03T00:28:25;14.30;8.60
4054;DHT22;2042;47.956;9.222;2022-08-03T00:30:51;14.30;9.10
4054;DHT22;2042;47.956;9.222;2022-08-03T00:33:16;14.30;9.20
4054;DHT22;2042;47.956;9.222;2022-08-03T00:35:42;14.30;9.00
4054;DHT22;2042;47.956;9.222;2022-08-03T00:38:08;14.20;8.30
4054;DHT22;2042;47.956;9.222;2022-08-03T00:40:34;14.20;7.80
4054;DHT22;2042;47.956;9.222;2022-08-03T00:43:01;14.10;7.70
4054;DHT22;2042;47.956;9.222;2022-08-03T00:45:34;14.10;8.00
4054;DHT22;2042;47.956;9.222;2022-08-03T00:48:01;14.10;8.30
4054;DHT22;2042;47.956;9.222;2022-08-03T00:50:30;14.10;9.20
4054;DHT22;2042;47.956;9.222;2022-08-03T00:52:58;14.10;9.50
4054;DHT22;2042;47.956;9.222;2022-08-03T00:55:24;14.10;9.60
4054;DHT22;2042;47.956;9.222;2022-08-03T00:57:50;14.10;9.50
4054;DHT22;2042;47.956;9.222;2022-08-03T01:00:20;14.00;9.30
4054;DHT22;2042;47.956;9.222;2022-08-03T01:02:46;14.00;8.60
4054;DHT22;2042;47.956;9.222;2022-08-03T01:05:12;13.90;8.00
4054;DHT22;2042;47.956;9.222;2022-08-03T01:11:25;13.90;8.30
4054;DHT22;2042;47.956;9.222;2022-08-03T01:14:08;13.80;8.30
4054;DHT22;2042;47.956;9.222;2022-08-03T01:16:47;13.80;8.30
4054;DHT22;2042;47.956;9.222;2022-08-03T01:22:13;13.70;7.60
4054;DHT22;2042;47.956;9.222;2022-08-03T01:30:17;13.60;7.50
4054;DHT22;2042;47.956;9.222;2022-08-03T01:33:05;13.50;8.10
4054;DHT22;2042;47.956;9.222;2022-08-03T01:35:36;13.50;9.00
4054;DHT22;2042;47.956;9.222;2022-08-03T01:38:10;13.50;10.20
4054;DHT22;2042;47.956;9.222;2022-08-03T01:40:36;13.60;10.60
4054;DHT22;2042;47.956;9.222;2022-08-03T01:43:05;13.50;10.10
4054;DHT22;2042;47.956;9.222;2022-08-03T01:45:33;13.50;9.80
4054;DHT22;2042;47.956;9.222;2022-08-03T01:48:00;13.50;9.80
4054;DHT22;2042;47.956;9.222;2022-08-03T01:50:28;13.50;9.60
4054;DHT22;2042;47.956;9.222;2022-08-03T01:52:56;13.50;9.30
4054;DHT22;2042;47.956;9.222;2022-08-03T01:55:24;13.40;9.10
4054;DHT22;2042;47.956;9.222;2022-08-03T01:57:53;13.40;9.70
4054;DHT22;2042;47.956;9.222;2022-08-03T02:00:19;13.40;9.70
4054;DHT22;2042;47.956;9.222;2022-08-03T02:02:48;13.30;9.80
4054;DHT22;2042;47.956;9.222;2022-08-03T02:05:17;13.30;9.50
4054;DHT22;2042;47.956;9.222;2022-08-03T02:07:45;13.30;9.80
4054;DHT22;2042;47.956;9.222;2022-08-03T02:10:13;13.30;9.90
4054;DHT22;2042;47.956;9.222;2022-08-03T02:12:42;13.20;9.80
4054;DHT22;2042;47.956;9.222;2022-08-03T02:15:09;13.20;9.50
4054;DHT22;2042;47.956;9.222;2022-08-03T02:17:36;13.20;9.00
4054;DHT22;2042;47.956;9.222;2022-08-03T02:20:04;13.10;8.40
4054;DHT22;2042;47.956;9.222;2022-08-03T02:22:32;13.10;8.50
4054;DHT22;2042;47.956;9.222;2022-08-03T02:24:58;13.10;8.70
4054;DHT22;2042;47.956;9.222;2022-08-03T02:27:26;13.10;9.10
4054;DHT22;2042;47.956;9.222;2022-08-03T02:30:06;13.00;9.00
4054;DHT22;2042;47.956;9.222;2022-08-03T02:32:36;13.00;8.70
4054;DHT22;2042;47.956;9.222;2022-08-03T02:35:05;13.00;8.70
4054;DHT22;2042;47.956;9.222;2022-08-03T02:37:34;13.00;9.10
4054;DHT22;2042;47.956;9.222;2022-08-03T02:40:02;12.90;9.70
4054;DHT22;2042;47.956;9.222;2022-08-03T02:42:30;12.90;10.50
4054;DHT22;2042;47.956;9.222;2022-08-03T02:44:59;12.90;11.00
4054;DHT22;2042;47.956;9.222;2022-08-03T02:47:27;13.00;11.20
4054;DHT22;2042;47.956;9.222;2022-08-03T02:49:56;13.00;11.30
4054;DHT22;2042;47.956;9.222;2022-08-03T02:52:26;13.00;11.20
4054;DHT22;2042;47.956;9.222;2022-08-03T02:54:56;12.90;11.00
4054;DHT22;2042;47.956;9.222;2022-08-03T02:57:28;12.90;10.90
4054;DHT22;2042;47.956;9.222;2022-08-03T02:59:57;12.90;10.80
4054;DHT22;2042;47.956;9.222;2022-08-03T03:02:24;12.80;10.60
4054;DHT22;2042;47.956;9.222;2022-08-03T03:04:52;12.80;10.80
4054;DHT22;2042;47.956;9.222;2022-08-03T03:07:19;12.80;9.80
4054;DHT22;2042;47.956;9.222;2022-08-03T03:09:46;12.70;9.50
4054;DHT22;2042;47.956;9.222;2022-08-03T03:12:13;12.60;9.00
4054;DHT22;2042;47.956;9.222;2022-08-03T03:14:39;12.60;8.60
4054;DHT22;2042;47.956;9.222;2022-08-03T03:17:06;12.50;8.80
4054;DHT22;2042;47.956;9.222;2022-08-03T03:19:33;12.50;9.00
4054;DHT22;2042;47.956;9.222;2022-08-03T03:22:00;12.50;9.20
4054;DHT22;2042;47.956;9.222;2022-08-03T03:24:29;12.40;9.70
4054;DHT22;2042;47.956;9.222;2022-08-03T03:26:56;12.50;10.60
4054;DHT22;2042;47.956;9.222;2022-08-03T03:29:22;12.50;10.70
4054;DHT22;2042;47.956;9.222;2022-08-03T03:31:48;12.50;10.90
4054;DHT22;2042;47.956;9.222;2022-08-03T03:34:14;12.50;11.20
4054;DHT22;2042;47.956;9.222;2022-08-03T03:36:40;12.60;11.40
4054;DHT22;2042;47.956;9.222;2022-08-03T03:39:06;12.50;11.10
4054;DHT22;2042;47.956;9.222;2022-08-03T03:41:32;12.50;10.90
4054;DHT22;2042;47.956;9.222;2022-08-03T03:43:59;12.40;10.90
4054;DHT22;2042;47.956;9.222;2022-08-03T03:46:25;12.40;10.90
4054;DHT22;2042;47.956;9.222;2022-08-03T03:48:50;12.40;11.30
4054;DHT22;2042;47.956;9.222;2022-08-03T03:51:16;12.40;11.70
4054;DHT22;2042;47.956;9.222;2022-08-03T03:53:56;12.40;12.00
4054;DHT22;2042;47.956;9.222;2022-08-03T03:56:23;12.40;11.70
4054;DHT22;2042;47.956;9.222;2022-08-03T03:58:49;12.40;11.50
4054;DHT22;2042;47.956;9.222;2022-08-03T04:01:15;12.40;11.50
4054;DHT22;2042;47.956;9.222;2022-08-03T04:03:41;12.30;11.00
4054;DHT22;2042;47.956;9.222;2022-08-03T04:06:07;12.30;11.00
4054;DHT22;2042;47.956;9.222;2022-08-03T04:08:51;12.30;10.90
4054;DHT22;2042;47.956;9.222;2022-08-03T04:11:38;12.20;11.80
4054;DHT22;2042;47.956;9.222;2022-08-03T04:14:31;12.20;10.70
4054;DHT22;2042;47.956;9.222;2022-08-03T04:17:01;12.20;10.60
4054;DHT22;2042;47.956;9.222;2022-08-03T04:22:03;12.20;12.10
4054;DHT22;2042;47.956;9.222;2022-08-03T04:24:37;12.20;12.20
4054;DHT22;2042;47.956;9.222;2022-08-03T04:27:06;12.20;12.00
4054;DHT22;2042;47.956;9.222;2022-08-03T04:29:34;12.20;11.70
4054;DHT22;2042;47.956;9.222;2022-08-03T04:32:00;12.20;11.70
4054;DHT22;2042;47.956;9.222;2022-08-03T04:39:25;12.40;12.80
4054;DHT22;2042;47.956;9.222;2022-08-03T04:41:57;12.40;13.40
4054;DHT22;2042;47.956;9.222;2022-08-03T04:44:24;12.50;14.30
4054;DHT22;2042;47.956;9.222;2022-08-03T04:46:51;12.60;15.00
4054;DHT22;2042;47.956;9.222;2022-08-03T04:49:19;12.80;15.80
4054;DHT22;2042;47.956;9.222;2022-08-03T04:51:46;12.90;16.40
4054;DHT22;2042;47.956;9.222;2022-08-03T04:54:13;13.10;17.00
4054;DHT22;2042;47.956;9.222;2022-08-03T04:56:41;13.30;17.30
4054;DHT22;2042;47.956;9.222;2022-08-03T04:59:07;13.50;17.30
4054;DHT22;2042;47.956;9.222;2022-08-03T05:01:33;13.70;17.30
4054;DHT22;2042;47.956;9.222;2022-08-03T05:03:59;13.80;16.90
4054;DHT22;2042;47.956;9.222;2022-08-03T05:06:25;14.00;16.50
4054;DHT22;2042;47.956;9.222;2022-08-03T05:08:51;14.10;16.10
4054;DHT22;2042;47.956;9.222;2022-08-03T05:11:17;14.30;16.20
4054;DHT22;2042;47.956;9.222;2022-08-03T05:13:44;14.40;16.30
4054;DHT22;2042;47.956;9.222;2022-08-03T05:16:10;14.60;16.10
4054;DHT22;2042;47.956;9.222;2022-08-03T05:18:36;14.80;15.80
4054;DHT22;2042;47.956;9.222;2022-08-03T05:21:02;14.90;14.90
4054;DHT22;2042;47.956;9.222;2022-08-03T05:23:29;15.10;14.00
4054;DHT22;2042;47.956;9.222;2022-08-03T05:25:55;15.30;14.00
4054;DHT22;2042;47.956;9.222;2022-08-03T05:28:21;15.40;13.60
4054;DHT22;2042;47.956;9.222;2022-08-03T05:30:46;15.60;12.80
4054;DHT22;2042;47.956;9.222;2022-08-03T05:33:12;15.80;11.10
4054;DHT22;2042;47.956;9.222;2022-08-03T05:35:38;15.90;8.80
4054;DHT22;2042;47.956;9.222;2022-08-03T05:38:05;16.00;7.60
4054;DHT22;2042;47.956;9.222;2022-08-03T05:40:31;16.40;6.80
4054;DHT22;2042;47.956;9.222;2022-08-03T05:42:57;16.30;5.90
4054;DHT22;2042;47.956;9.222;2022-08-03T05:45:23;16.60;6.30
4054;DHT22;2042;47.956;9.222;2022-08-03T05:47:50;16.80;5.90
4054;DHT22;2042;47.956;9.222;2022-08-03T05:50:17;17.30;16.10
4054;DHT22;2042;47.956;9.222;2022-08-03T05:52:44;17.90;22.00
4054;DHT22;2042;47.956;9.222;2022-08-03T05:55:10;18.90;17.70
4054;DHT22;2042;47.956;9.222;2022-08-03T05:57:37;19.90;16.50
4054;DHT22;2042;47.956;9.222;2022-08-03T06:00:08;21.00;1.00
4054;DHT22;2042;47.956;9.222;2022-08-03T06:02:34;21.90;1.00
4054;DHT22;2042;47.956;9.222;2022-08-03T06:05:00;22.80;1.00
4054;DHT22;2042;47.956;9.222;2022-08-03T06:07:26;23.50;1.00
4054;DHT22;2042;47.956;9.222;2022-08-03T06:12:18;25.20;1.00
4054;DHT22;2042;47.956;9.222;2022-08-03T06:14:44;25.30;1.00
4054;DHT22;2042;47.956;9.222;2022-08-03T06:17:10;25.60;1.00
4054;DHT22;2042;47.956;9.222;2022-08-03T06:19:36;25.60;1.00
4054;DHT22;2042;47.956;9.222;2022-08-03T06:22:01;25.60;1.00
4054;DHT22;2042;47.956;9.222;2022-08-03T06:24:27;25.50;1.00
4054;DHT22;2042;47.956;9.222;2022-08-03T06:26:53;25.30;1.00
4054;DHT22;2042;47.956;9.222;2022-08-03T06:29:19;25.30;1.00
4054;DHT22;2042;47.956;9.222;2022-08-03T06:31:44;25.50;1.00
4054;DHT22;2042;47.956;9.222;2022-08-03T06:34:10;25.70;1.00
4054;DHT22;2042;47.956;9.222;2022-08-03T06:36:36;26.00;1.00
4054;DHT22;2042;47.956;9.222;2022-08-03T06:39:02;26.50;1.00
4054;DHT22;2042;47.956;9.222;2022-08-03T06:41:28;27.00;1.00
4054;DHT22;2042;47.956;9.222;2022-08-03T06:43:54;27.50;1.00
4054;DHT22;2042;47.956;9.222;2022-08-03T06:46:20;28.10;1.00
4054;DHT22;2042;47.956;9.222;2022-08-03T06:48:45;28.80;1.00
4054;DHT22;2042;47.956;9.222;2022-08-03T06:51:11;29.30;1.00
4054;DHT22;2042;47.956;9.222;2022-08-03T06:53:37;30.00;1.00
4054;DHT22;2042;47.956;9.222;2022-08-03T06:56:07;30.50;1.00
4054;DHT22;2042;47.956;9.222;2022-08-03T06:58:33;30.90;1.00
4054;DHT22;2042;47.956;9.222;2022-08-03T07:00:59;31.30;1.00
4054;DHT22;2042;47.956;9.222;2022-08-03T07:03:25;31.70;1.00
4054;DHT22;2042;47.956;9.222;2022-08-03T07:05:51;32.00;1.00
4054;DHT22;2042;47.956;9.222;2022-08-03T07:08:17;32.20;1.00
4054;DHT22;2042;47.956;9.222;2022-08-03T09:55:51;44.10;1.00
4054;DHT22;2042;47.956;9.222;2022-08-03T09:58:20;43.80;1.00
4054;DHT22;2042;47.956;9.222;2022-08-03T10:03:29;44.30;1.00
4054;DHT22;2042;47.956;9.222;2022-08-03T10:05:58;44.30;1.00
4054;DHT22;2042;47.956;9.222;2022-08-03T10:08:24;44.00;1.00
4054;DHT22;2042;47.956;9.222;2022-08-03T10:10:51;43.90;1.00
4054;DHT22;2042;47.956;9.222;2022-08-03T10:13:23;43.70;1.00
4054;DHT22;2042;47.956;9.222;2022-08-03T10:15:49;43.40;1.00
4054;DHT22;2042;47.956;9.222;2022-08-03T10:18:18;43.30;1.00
4054;DHT22;2042;47.956;9.222;2022-08-03T10:20:56;43.80;1.00
4054;DHT22;2042;47.956;9.222;2022-08-03T10:23:24;44.40;1.00
4054;DHT22;2042;47.956;9.222;2022-08-03T10:25:57;44.70;1.00
4054;DHT22;2042;47.956;9.222;2022-08-03T10:30:52;45.20;1.00
4054;DHT22;2042;47.956;9.222;2022-08-03T10:33:23;45.40;1.00
4054;DHT22;2042;47.956;9.222;2022-08-03T10:35:54;45.60;1.00
4054;DHT22;2042;47.956;9.222;2022-08-03T10:38:25;45.70;1.00
4054;DHT22;2042;47.956;9.222;2022-08-03T10:40:53;45.80;1.00
4054;DHT22;2042;47.956;9.222;2022-08-03T10:43:25;45.80;1.00
4054;DHT22;2042;47.956;9.222;2022-08-03T10:45:52;45.40;1.00
4054;DHT22;2042;47.956;9.222;2022-08-03T10:48:18;44.90;1.00
4054;DHT22;2042;47.956;9.222;2022-08-03T10:50:47;44.80;1.00
4054;DHT22;2042;47.956;9.222;2022-08-03T10:53:12;44.90;1.00
4054;DHT22;2042;47.956;9.222;2022-08-03T10:55:39;44.70;1.00
4054;DHT22;2042;47.956;9.222;2022-08-03T10:58:52;44.30;1.00
4054;DHT22;2042;47.956;9.222;2022-08-03T11:01:49;44.40;1.00
4054;DHT22;2042;47.956;9.222;2022-08-03T11:06:31;44.30;1.00
4054;DHT22;2042;47.956;9.222;2022-08-03T11:11:36;45.10;1.00
4054;DHT22;2042;47.956;9.222;2022-08-03T11:16:34;45.40;1.00
4054;DHT22;2042;47.956;9.222;2022-08-03T11:19:05;45.90;1.00
4054;DHT22;2042;47.956;9.222;2022-08-03T11:27:22;45.80;1.00
4054;DHT22;2042;47.956;9.222;2022-08-03T11:30:08;45.80;1.00
4054;DHT22;2042;47.956;9.222;2022-08-03T11:40:46;46.40;1.00
4054;DHT22;2042;47.956;9.222;2022-08-03T11:46:02;46.20;1.00
4054;DHT22;2042;47.956;9.222;2022-08-03T11:51:06;45.50;1.00
4054;DHT22;2042;47.956;9.222;2022-08-03T11:53:32;45.50;1.00
4054;DHT22;2042;47.956;9.222;2022-08-03T11:56:00;45.20;1.00
4054;DHT22;2042;47.956;9.222;2022-08-03T11:58:27;45.10;1.00
4054;DHT22;2042;47.956;9.222;2022-08-03T12:01:03;45.10;1.00
4054;DHT22;2042;47.956;9.222;2022-08-03T12:03:31;45.20;1.00
4054;DHT22;2042;47.956;9.222;2022-08-03T12:05:57;44.80;1.00
4054;DHT22;2042;47.956;9.222;2022-08-03T12:10:52;44.30;1.00
4054;DHT22;2042;47.956;9.222;2022-08-03T12:13:19;44.40;1.00
4054;DHT22;2042;47.956;9.222;2022-08-03T12:15:50;44.30;1.00
4054;DHT22;2042;47.956;9.222;2022-08-03T12:18:17;44.60;1.00
4054;DHT22;2042;47.956;9.222;2022-08-03T12:20:45;44.70;1.00
4054;DHT22;2042;47.956;9.222;2022-08-03T12:23:11;44.80;1.00
4054;DHT22;2042;47.956;9.222;2022-08-03T12:25:39;45.10;1.00
4054;DHT22;2042;47.956;9.222;2022-08-03T12:28:07;45.10;1.00
4054;DHT22;2042;47.956;9.222;2022-08-03T12:30:34;44.60;1.00
4054;DHT22;2042;47.956;9.222;2022-08-03T12:33:23;44.70;1.00
4054;DHT22;2042;47.956;9.222;2022-08-03T12:36:07;44.80;1.00
4054;DHT22;2042;47.956;9.222;2022-08-03T12:38:35;44.70;1.00
4054;DHT22;2042;47.956;9.222;2022-08-03T12:41:07;44.60;1.00
4054;DHT22;2042;47.956;9.222;2022-08-03T12:43:34;44.40;1.00
4054;DHT22;2042;47.956;9.222;2022-08-03T12:46:29;44.30;1.00
4054;DHT22;2042;47.956;9.222;2022-08-03T12:49:00;44.40;1.00
4054;DHT22;2042;47.956;9.222;2022-08-03T12:51:28;44.60;1.00
4054;DHT22;2042;47.956;9.222;2022-08-03T12:53:55;44.60;1.00
4054;DHT22;2042;47.956;9.222;2022-08-03T12:56:22;44.30;1.00
4054;DHT22;2042;47.956;9.222;2022-08-03T12:58:48;44.00;1.00
4054;DHT22;2042;47.956;9.222;2022-08-03T13:01:15;44.10;1.00
4054;DHT22;2042;47.956;9.222;2022-08-03T13:03:47;44.30;1.00
4054;DHT22;2042;47.956;9.222;2022-08-03T13:06:14;44.50;1.00
4054;DHT22;2042;47.956;9.222;2022-08-03T13:08:41;44.60;1.00
4054;DHT22;2042;47.956;9.222;2022-08-03T13:11:20;44.50;1.00
4054;DHT22;2042;47.956;9.222;2022-08-03T13:13:46;44.30;1.00
4054;DHT22;2042;47.956;9.222;2022-08-03T13:16:12;44.50;1.00
4054;DHT22;2042;47.956;9.222;2022-08-03T13:18:38;44.70;1.00
4054;DHT22;2042;47.956;9.222;2022-08-03T13:21:03;44.80;1.00
4054;DHT22;2042;47.956;9.222;2022-08-03T13:23:29;44.80;1.00
4054;DHT22;2042;47.956;9.222;2022-08-03T13:25:55;44.90;1.00
4054;DHT22;2042;47.956;9.222;2022-08-03T13:28:21;44.80;1.00
4054;DHT22;2042;47.956;9.222;2022-08-03T13:30:46;44.60;1.00
4054;DHT22;2042;47.956;9.222;2022-08-03T13:33:12;44.60;1.00
4054;DHT22;2042;47.956;9.222;2022-08-03T13:35:38;44.60;1.00
4054;DHT22;2042;47.956;9.222;2022-08-03T13:38:03;44.70;1.00
4054;DHT22;2042;47.956;9.222;2022-08-03T13:40:29;44.50;1.00
4054;DHT22;2042;47.956;9.222;2022-08-03T13:42:56;44.40;1.00
4054;DHT22;2042;47.956;9.222;2022-08-03T13:45:22;44.40;1.00
4054;DHT22;2042;47.956;9.222;2022-08-03T13:47:48;44.30;1.00
4054;DHT22;2042;47.956;9.222;2022-08-03T13:50:14;44.30;1.00
4054;DHT22;2042;47.956;9.222;2022-08-03T13:52:40;44.10;1.00
4054;DHT22;2042;47.956;9.222;2022-08-03T13:55:06;43.80;1.00
4054;DHT22;2042;47.956;9.222;2022-08-03T13:57:33;43.50;1.00
4054;DHT22;2042;47.956;9.222;2022-08-03T13:59:58;43.40;1.00
4054;DHT22;2042;47.956;9.222;2022-08-03T14:02:24;43.40;1.00
4054;DHT22;2042;47.956;9.222;2022-08-03T14:04:49;43.70;1.00
4054;DHT22;2042;47.956;9.222;2022-08-03T14:07:15;43.60;1.00
4054;DHT22;2042;47.956;9.222;2022-08-03T14:09:41;43.60;1.00
4054;DHT22;2042;47.956;9.222;2022-08-03T14:12:06;43.80;1.00
4054;DHT22;2042;47.956;9.222;2022-08-03T14:14:32;44.10;1.00
4054;DHT22;2042;47.956;9.222;2022-08-03T14:16:58;43.60;1.00
4054;DHT22;2042;47.956;9.222;2022-08-03T14:19:24;42.80;1.00
4054;DHT22;2042;47.956;9.222;2022-08-03T14:21:49;42.20;1.00
4054;DHT22;2042;47.956;9.222;2022-08-03T14:24:15;41.60;1.00
4054;DHT22;2042;47.956;9.222;2022-08-03T14:26:41;41.60;1.00
4054;DHT22;2042;47.956;9.222;2022-08-03T14:29:06;41.80;1.00
4054;DHT22;2042;47.956;9.222;2022-08-03T14:31:32;41.70;1.00
4054;DHT22;2042;47.956;9.222;2022-08-03T14:33:58;41.50;1.00
4054;DHT22;2042;47.956;9.222;2022-08-03T14:36:23;41.60;1.00
4054;DHT22;2042;47.956;9.222;2022-08-03T14:38:49;41.80;1.00
4054;DHT22;2042;47.956;9.222;2022-08-03T14:41:15;42.60;1.00
4054;DHT22;2042;47.956;9.222;2022-08-03T14:43:41;43.10;1.00
4054;DHT22;2042;47.956;9.222;2022-08-03T14:46:06;43.50;1.00
4054;DHT22;2042;47.956;9.222;2022-08-03T14:48:32;43.80;1.00
4054;DHT22;2042;47.956;9.222;2022-08-03T14:50:58;43.60;1.00
4054;DHT22;2042;47.956;9.222;2022-08-03T14:53:23;43.90;1.00
4054;DHT22;2042;47.956;9.222;2022-08-03T14:55:49;43.80;1.00
4054;DHT22;2042;47.956;9.222;2022-08-03T14:58:21;43.70;1.00
4054;DHT22;2042;47.956;9.222;2022-08-03T15:00:47;43.30;1.00
4054;DHT22;2042;47.956;9.222;2022-08-03T15:03:13;42.60;1.00
4054;DHT22;2042;47.956;9.222;2022-08-03T15:05:39;42.40;1.00
4054;DHT22;2042;47.956;9.222;2022-08-03T15:08:04;42.40;1.00
4054;DHT22;2042;47.956;9.222;2022-08-03T15:10:30;42.10;1.00
4054;DHT22;2042;47.956;9.222;2022-08-03T15:12:56;42.10;1.00
4054;DHT22;2042;47.956;9.222;2022-08-03T15:15:21;41.90;1.00
4054;DHT22;2042;47.956;9.222;2022-08-03T15:17:47;41.70;1.00
4054;DHT22;2042;47.956;9.222;2022-08-03T15:20:13;41.80;1.00
4054;DHT22;2042;47.956;9.222;2022-08-03T15:22:39;41.20;1.00
4054;DHT22;2042;47.956;9.222;2022-08-03T15:25:05;41.10;1.00
4054;DHT22;2042;47.956;9.222;2022-08-03T15:27:31;41.20;1.00
4054;DHT22;2042;47.956;9.222;2022-08-03T15:29:57;41.20;1.00
4054;DHT22;2042;47.956;9.222;2022-08-03T15:32:23;41.50;1.00
4054;DHT22;2042;47.956;9.222;2022-08-03T15:34:49;40.80;1.00
4054;DHT22;2042;47.956;9.222;2022-08-03T15:37:16;40.60;1.00
4054;DHT22;2042;47.956;9.222;2022-08-03T15:39:42;40.10;1.00
4054;DHT22;2042;47.956;9.222;2022-08-03T15:42:07;39.60;1.00
4054;DHT22;2042;47.956;9.222;2022-08-03T15:44:33;39.60;1.00
4054;DHT22;2042;47.956;9.222;2022-08-03T15:46:59;39.30;1.00
4054;DHT22;2042;47.956;9.222;2022-08-03T15:49:24;38.90;1.00
4054;DHT22;2042;47.956;9.222;2022-08-03T15:51:50;38.60;1.00
4054;DHT22;2042;47.956;9.222;2022-08-03T15:54:16;38.10;1.00
4054;DHT22;2042;47.956;9.222;2022-08-03T15:56:41;38.80;1.00
4054;DHT22;2042;47.956;9.222;2022-08-03T15:59:10;39.10;1.00
4054;DHT22;2042;47.956;9.222;2022-08-03T16:01:37;39.40;1.00
4054;DHT22;2042;47.956;9.222;2022-08-03T16:04:03;39.30;1.00
4054;DHT22;2042;47.956;9.222;2022-08-03T16:06:28;39.60;1.00
4054;DHT22;2042;47.956;9.222;2022-08-03T16:08:54;39.60;1.00
4054;DHT22;2042;47.956;9.222;2022-08-03T16:11:20;39.70;1.00
4054;DHT22;2042;47.956;9.222;2022-08-03T16:13:46;40.70;1.00
4054;DHT22;2042;47.956;9.222;2022-08-03T16:16:12;39.80;1.00
4054;DHT22;2042;47.956;9.222;2022-08-03T16:18:38;39.80;1.00
4054;DHT22;2042;47.956;9.222;2022-08-03T16:21:03;39.70;1.00
4054;DHT22;2042;47.956;9.222;2022-08-03T16:23:29;39.50;1.00
4054;DHT22;2042;47.956;9.222;2022-08-03T16:25:55;40.60;1.00
4054;DHT22;2042;47.956;9.222;2022-08-03T16:28:21;39.50;1.00
4054;DHT22;2042;47.956;9.222;2022-08-03T16:30:47;39.50;1.00
4054;DHT22;2042;47.956;9.222;2022-08-03T16:33:14;39.30;1.00
4054;DHT22;2042;47.956;9.222;2022-08-03T16:35:40;39.00;1.00
4054;DHT22;2042;47.956;9.222;2022-08-03T16:38:06;38.90;1.00
4054;DHT22;2042;47.956;9.222;2022-08-03T16:40:34;38.80;1.00
4054;DHT22;2042;47.956;9.222;2022-08-03T16:43:00;38.60;1.00
4054;DHT22;2042;47.956;9.222;2022-08-03T16:45:25;38.50;1.00
4054;DHT22;2042;47.956;9.222;2022-08-03T16:47:51;38.40;1.00
4054;DHT22;2042;47.956;9.222;2022-08-03T16:50:17;38.20;1.00
4054;DHT22;2042;47.956;9.222;2022-08-03T16:52:43;37.90;1.00
4054;DHT22;2042;47.956;9.222;2022-08-03T16:55:09;37.50;1.00
4054;DHT22;2042;47.956;9.222;2022-08-03T16:57:38;37.00;1.00
4054;DHT22;2042;47.956;9.222;2022-08-03T17:00:04;36.60;1.00
4054;DHT22;2042;47.956;9.222;2022-08-03T17:02:30;36.30;1.00
4054;DHT22;2042;47.956;9.222;2022-08-03T17:04:56;36.20;1.00
4054;DHT22;2042;47.956;9.222;2022-08-03T17:07:23;36.10;1.00
4054;DHT22;2042;47.956;9.222;2022-08-03T17:09:49;35.90;1.00
4054;DHT22;2042;47.956;9.222;2022-08-03T17:12:15;35.70;1.00
4054;DHT22;2042;47.956;9.222;2022-08-03T17:14:41;35.60;1.00
4054;DHT22;2042;47.956;9.222;2022-08-03T17:17:16;35.40;1.00
4054;DHT22;2042;47.956;9.222;2022-08-03T17:19:45;35.30;1.00
4054;DHT22;2042;47.956;9.222;2022-08-03T17:22:16;35.20;1.00
4054;DHT22;2042;47.956;9.222;2022-08-03T17:24:52;35.10;1.00
4054;DHT22;2042;47.956;9.222;2022-08-03T17:27:22;35.00;1.00
4054;DHT22;2042;47.956;9.222;2022-08-03T17:29:58;34.80;1.00
4054;DHT22;2042;47.956;9.222;2022-08-03T17:32:24;34.60;1.00
4054;DHT22;2042;47.956;9.222;2022-08-03T17:34:50;34.40;1.00
4054;DHT22;2042;47.956;9.222;2022-08-03T17:37:17;34.10;1.00
4054;DHT22;2042;47.956;9.222;2022-08-03T17:39:45;33.90;1.00
4054;DHT22;2042;47.956;9.222;2022-08-03T17:42:12;33.60;1.00
4054;DHT22;2042;47.956;9.222;2022-08-03T17:44:37;33.10;1.00
4054;DHT22;2042;47.956;9.222;2022-08-03T17:47:04;32.70;1.00
4054;DHT22;2042;47.956;9.222;2022-08-03T17:49:30;32.10;1.00
4054;DHT22;2042;47.956;9.222;2022-08-03T17:52:05;31.50;1.00
4054;DHT22;2042;47.956;9.222;2022-08-03T17:57:34;30.40;1.00
4054;DHT22;2042;47.956;9.222;2022-08-03T18:00:09;29.90;1.00
4054;DHT22;2042;47.956;9.222;2022-08-03T18:05:50;28.80;1.00
4054;DHT22;2042;47.956;9.222;2022-08-03T18:08:25;28.40;1.00
4054;DHT22;2042;47.956;9.222;2022-08-03T18:10:55;28.00;1.00
4054;DHT22;2042;47.956;9.222;2022-08-03T18:13:29;27.70;1.00
4054;DHT22;2042;47.956;9.222;2022-08-03T18:16:03;27.40;1.00
4054;DHT22;2042;47.956;9.222;2022-08-03T18:18:33;27.10;1.00
4054;DHT22;2042;47.956;9.222;2022-08-03T18:21:04;26.80;1.00
4054;DHT22;2042;47.956;9.222;2022-08-03T18:23:31;26.50;1.00
4054;DHT22;2042;47.956;9.222;2022-08-03T18:25:58;26.20;1.00
4054;DHT22;2042;47.956;9.222;2022-08-03T18:28:26;25.80;1.00
4054;DHT22;2042;47.956;9.222;2022-08-03T18:30:53;25.50;1.00
4054;DHT22;2042;47.956;9.222;2022-08-03T18:33:19;25.30;1.00
4054;DHT22;2042;47.956;9.222;2022-08-03T18:35:44;25.00;1.00
4054;DHT22;2042;47.956;9.222;2022-08-03T18:38:13;24.80;1.00
4054;DHT22;2042;47.956;9.222;2022-08-03T18:40:41;24.50;1.00
4054;DHT22;2042;47.956;9.222;2022-08-03T18:43:07;24.30;1.00
4054;DHT22;2042;47.956;9.222;2022-08-03T18:45:37;24.10;1.00
4054;DHT22;2042;47.956;9.222;2022-08-03T18:50:56;23.60;1.00
4054;DHT22;2042;47.956;9.222;2022-08-03T18:53:37;23.30;1.00
4054;DHT22;2042;47.956;9.222;2022-08-03T18:56:08;23.10;1.00
4054;DHT22;2042;47.956;9.222;2022-08-03T18:59:04;22.90;1.00
4054;DHT22;2042;47.956;9.222;2022-08-03T19:01:45;22.70;1.00
4054;DHT22;2042;47.956;9.222;2022-08-03T19:04:32;22.40;1.00
4054;DHT22;2042;47.956;9.222;2022-08-03T19:07:02;22.20;1.00
4054;DHT22;2042;47.956;9.222;2022-08-03T19:09:48;22.10;1.00
4054;DHT22;2042;47.956;9.222;2022-08-03T19:12:22;21.90;1.00
4054;DHT22;2042;47.956;9.222;2022-08-03T19:14:57;21.70;1.00
4054;DHT22;2042;47.956;9.222;2022-08-03T19:17:25;21.60;1.00
4054;DHT22;2042;47.956;9.222;2022-08-03T19:19:53;21.40;1.00
4054;DHT22;2042;47.956;9.222;2022-08-03T19:22:18;21.20;1.00
4054;DHT22;2042;47.956;9.222;2022-08-03T19:24:52;21.10;1.00
4054;DHT22;2042;47.956;9.222;2022-08-03T19:27:20;20.90;1.00
4054;DHT22;2042;47.956;9.222;2022-08-03T19:29:47;20.80;1.00
4054;DHT22;2042;47.956;9.222;2022-08-03T19:32:16;20.70;1.00
4054;DHT22;2042;47.956;9.222;2022-08-03T19:34:46;20.60;1.00
4054;DHT22;2042;47.956;9.222;2022-08-03T19:37:13;20.50;1.00
4054;DHT22;2042;47.956;9.222;2022-08-03T19:39:40;20.40;1.00
4054;DHT22;2042;47.956;9.222;2022-08-03T19:42:09;20.30;1.00
4054;DHT22;2042;47.956;9.222;2022-08-03T19:44:39;20.30;1.00
4054;DHT22;2042;47.956;9.222;2022-08-03T19:47:22;20.10;1.00
4054;DHT22;2042;47.956;9.222;2022-08-03T19:49:53;20.00;1.00
4054;DHT22;2042;47.956;9.222;2022-08-03T19:52:20;19.90;1.00
4054;DHT22;2042;47.956;9.222;2022-08-03T19:54:50;19.80;1.00
4054;DHT22;2042;47.956;9.222;2022-08-03T19:57:18;19.70;1.00
4054;DHT22;2042;47.956;9.222;2022-08-03T19:59:44;19.60;1.00
4054;DHT22;2042;47.956;9.222;2022-08-03T20:02:12;19.50;1.00
4054;DHT22;2042;47.956;9.222;2022-08-03T20:04:37;19.50;1.00
4054;DHT22;2042;47.956;9.222;2022-08-03T20:07:04;19.40;1.00
4054;DHT22;2042;47.956;9.222;2022-08-03T20:09:32;19.30;1.00
4054;DHT22;2042;47.956;9.222;2022-08-03T20:11:58;19.20;1.00